createdAt,value
2023-05-05T00:02:07.906Z,5.47
2023-05-05T00:04:35.343Z,5.45
2023-05-05T00:07:02.588Z,5.82
2023-05-05T00:09:30.404Z,5.20
2023-05-05T00:11:57.511Z,5.13
2023-05-05T00:14:24.800Z,4.65
2023-05-05T00:16:53.025Z,5.05
2023-05-05T00:19:20.571Z,5.72
2023-05-05T00:21:48.464Z,4.20
2023-05-05T00:24:15.430Z,5.30
2023-05-05T00:26:42.888Z,5.18
2023-05-05T00:29:10.048Z,5.15
2023-05-05T00:31:37.810Z,4.55
2023-05-05T00:34:04.780Z,6.03
2023-05-05T00:36:32.152Z,4.90
2023-05-05T00:38:59.102Z,5.38
2023-05-05T00:41:26.901Z,5.00
2023-05-05T00:43:53.811Z,4.05
2023-05-05T00:46:26.721Z,5.13
2023-05-05T00:48:54.801Z,4.50
2023-05-05T00:51:22.883Z,5.05
2023-05-05T00:53:50.448Z,5.13
2023-05-05T00:56:19.973Z,5.13
2023-05-05T00:58:46.910Z,5.00
2023-05-05T01:01:15.303Z,6.07
2023-05-05T01:03:42.536Z,4.90
2023-05-05T01:06:28.173Z,4.95
2023-05-05T01:09:17.899Z,5.32
2023-05-05T01:12:09.895Z,4.93
2023-05-05T01:14:40.385Z,5.03
2023-05-05T01:17:17.306Z,5.70
2023-05-05T01:20:15.534Z,5.65
2023-05-05T01:22:47.067Z,5.63
2023-05-05T01:25:43.261Z,5.13
2023-05-05T01:28:39.477Z,5.90
2023-05-05T01:31:18.339Z,5.70
2023-05-05T01:33:53.379Z,5.95
2023-05-05T01:36:26.030Z,6.43
2023-05-05T01:38:58.434Z,6.30
2023-05-05T01:41:32.669Z,6.47
2023-05-05T01:44:03.119Z,6.55
2023-05-05T01:46:30.605Z,7.10
2023-05-05T01:48:58.937Z,6.28
2023-05-05T01:51:28.082Z,7.03
2023-05-05T01:53:59.324Z,6.95
2023-05-05T01:56:27.829Z,6.68
2023-05-05T01:58:56.258Z,6.82
2023-05-05T02:01:26.714Z,7.03
2023-05-05T02:03:59.303Z,7.15
2023-05-05T02:06:29.756Z,6.63
2023-05-05T02:08:58.563Z,6.38
2023-05-05T02:11:27.970Z,6.70
2023-05-05T02:13:57.486Z,7.63
2023-05-05T02:16:25.318Z,6.93
2023-05-05T02:18:54.686Z,6.88
2023-05-05T02:21:22.807Z,7.30
2023-05-05T02:23:52.160Z,7.53
2023-05-05T02:26:22.436Z,8.18
2023-05-05T02:28:58.717Z,7.63
2023-05-05T02:31:28.010Z,8.20
2023-05-05T02:33:58.214Z,7.38
2023-05-05T02:36:29.628Z,7.28
2023-05-05T02:39:07.314Z,7.72
2023-05-05T02:41:39.632Z,8.02
2023-05-05T02:44:15.790Z,8.60
2023-05-05T02:46:43.262Z,8.38
2023-05-05T02:49:10.524Z,8.95
2023-05-05T02:51:39.574Z,7.63
2023-05-05T02:54:14.695Z,7.40
2023-05-05T02:56:49.060Z,7.90
2023-05-05T02:59:41.818Z,7.00
2023-05-05T03:02:27.431Z,5.90
2023-05-05T03:05:04.324Z,6.40
2023-05-05T03:07:41.188Z,5.50
2023-05-05T03:10:20.315Z,5.20
2023-05-05T03:12:57.409Z,5.53
2023-05-05T03:15:41.925Z,6.72
2023-05-05T03:18:10.938Z,6.13
2023-05-05T03:23:13.247Z,5.38
2023-05-05T03:25:45.001Z,5.53
2023-05-05T03:28:20.172Z,5.20
2023-05-05T03:30:47.699Z,5.40
2023-05-05T03:33:16.860Z,5.32
2023-05-05T03:35:44.321Z,6.20
2023-05-05T03:38:13.210Z,5.50
2023-05-05T03:40:44.627Z,5.00
2023-05-05T03:43:16.358Z,6.63
2023-05-05T03:45:43.958Z,6.03
2023-05-05T03:48:11.517Z,6.50
2023-05-05T03:50:40.727Z,5.47
2023-05-05T03:53:08.533Z,5.97
2023-05-05T03:55:35.912Z,5.65
2023-05-05T03:58:02.921Z,7.53
2023-05-05T04:00:30.307Z,6.25
2023-05-05T04:02:57.727Z,5.60
2023-05-05T04:05:26.609Z,6.30
2023-05-05T04:07:54.136Z,5.25
2023-05-05T04:10:21.578Z,5.63
2023-05-05T04:12:49.026Z,6.00
2023-05-05T04:15:17.109Z,4.90
2023-05-05T04:17:44.793Z,5.38
2023-05-05T04:20:12.589Z,5.30
2023-05-05T04:22:41.132Z,5.80
2023-05-05T04:25:09.216Z,5.65
2023-05-05T04:27:36.525Z,6.45
2023-05-05T04:30:04.680Z,5.32
2023-05-05T04:32:33.320Z,4.63
2023-05-05T04:35:00.928Z,5.10
2023-05-05T04:37:28.299Z,6.70
2023-05-05T04:39:56.128Z,8.07
2023-05-05T04:42:23.409Z,6.03
2023-05-05T04:44:50.679Z,6.50
2023-05-05T04:47:18.193Z,6.70
2023-05-05T04:49:45.745Z,7.25
2023-05-05T04:52:15.904Z,7.75
2023-05-05T04:54:43.360Z,8.20
2023-05-05T04:57:10.425Z,7.55
2023-05-05T04:59:37.763Z,8.48
2023-05-05T05:02:06.589Z,7.88
2023-05-05T05:04:33.794Z,8.75
2023-05-05T05:07:01.607Z,8.77
2023-05-05T05:09:29.041Z,8.15
2023-05-05T05:12:00.685Z,8.48
2023-05-05T05:14:28.226Z,7.80
2023-05-05T05:16:55.569Z,8.10
2023-05-05T05:19:24.232Z,8.00
2023-05-05T05:21:51.755Z,7.47
2023-05-05T05:24:19.198Z,8.48
2023-05-05T05:26:46.965Z,8.30
2023-05-05T05:29:14.694Z,8.82
2023-05-05T05:31:41.654Z,7.88
2023-05-05T05:34:10.759Z,8.52
2023-05-05T05:36:40.698Z,8.60
2023-05-05T05:39:08.249Z,7.95
2023-05-05T05:41:35.599Z,8.15
2023-05-05T05:44:02.597Z,7.25
2023-05-05T05:46:30.244Z,7.10
2023-05-05T05:48:57.935Z,7.75
2023-05-05T05:51:25.748Z,7.13
2023-05-05T05:53:52.952Z,6.35
2023-05-05T05:56:20.225Z,6.75
2023-05-05T05:58:48.757Z,6.32
2023-05-05T06:01:18.006Z,6.07
2023-05-05T06:03:45.888Z,6.65
2023-05-05T06:06:13.214Z,5.82
2023-05-05T06:08:40.627Z,7.80
2023-05-05T06:11:08.292Z,6.07
2023-05-05T06:13:35.589Z,6.07
2023-05-05T06:16:02.932Z,5.88
2023-05-05T06:18:30.695Z,5.57
2023-05-05T06:20:58.024Z,5.50
2023-05-05T06:23:27.806Z,5.90
2023-05-05T06:25:59.874Z,5.28
2023-05-05T06:28:27.311Z,5.53
2023-05-05T06:30:54.599Z,5.38
2023-05-05T06:33:21.552Z,5.72
2023-05-05T06:35:51.390Z,5.63
2023-05-05T06:38:18.363Z,4.88
2023-05-05T06:40:49.368Z,4.82
2023-05-05T06:43:17.131Z,4.88
2023-05-05T06:45:52.097Z,4.50
2023-05-05T06:48:19.205Z,4.80
2023-05-05T06:50:46.747Z,4.90
2023-05-05T06:53:13.790Z,4.88
2023-05-05T06:55:48.128Z,5.10
2023-05-05T06:58:15.547Z,4.53
2023-05-05T07:00:43.476Z,4.22
2023-05-05T07:03:11.536Z,4.10
2023-05-05T07:05:39.001Z,4.88
2023-05-05T07:08:06.712Z,4.30
2023-05-05T07:10:34.547Z,3.80
2023-05-05T07:13:03.860Z,3.80
2023-05-05T07:15:31.191Z,4.07
2023-05-05T07:17:58.607Z,3.72
2023-05-05T07:20:26.869Z,4.15
2023-05-05T07:22:54.270Z,3.70
2023-05-05T07:25:22.094Z,3.85
2023-05-05T07:27:49.501Z,3.78
2023-05-05T07:30:19.082Z,3.15
2023-05-05T07:32:46.889Z,4.40
2023-05-05T07:35:14.791Z,3.80
2023-05-05T07:37:44.524Z,3.20
2023-05-05T07:40:13.364Z,3.33
2023-05-05T07:42:40.511Z,3.55
2023-05-05T07:45:08.420Z,3.70
2023-05-05T07:47:35.552Z,3.80
2023-05-05T07:50:05.023Z,3.45
2023-05-05T07:52:45.376Z,3.83
2023-05-05T07:55:17.726Z,3.83
2023-05-05T07:57:45.209Z,4.13
2023-05-05T08:00:13.576Z,3.42
2023-05-05T08:02:41.620Z,3.50
2023-05-05T08:05:09.804Z,3.60
2023-05-05T08:07:41.484Z,3.60
2023-05-05T08:10:12.209Z,3.75
2023-05-05T08:12:40.699Z,3.60
2023-05-05T08:15:08.971Z,3.95
2023-05-05T08:17:50.979Z,3.88
2023-05-05T08:20:20.233Z,4.00
2023-05-05T08:22:47.662Z,4.35
2023-05-05T08:25:15.102Z,3.90
2023-05-05T08:27:43.147Z,3.70
2023-05-05T08:30:11.960Z,4.10
2023-05-05T08:32:39.003Z,4.25
2023-05-05T08:35:07.583Z,4.30
2023-05-05T08:37:35.269Z,3.63
2023-05-05T08:40:03.458Z,3.92
2023-05-05T08:42:38.000Z,4.20
2023-05-05T08:45:08.808Z,4.45
2023-05-05T08:47:38.028Z,4.65
2023-05-05T08:50:06.374Z,4.40
2023-05-05T08:52:44.813Z,4.50
2023-05-05T08:55:24.469Z,4.32
2023-05-05T08:57:56.095Z,4.45
2023-05-05T09:00:24.802Z,3.67
2023-05-05T09:02:54.559Z,3.53
2023-05-05T09:05:22.336Z,3.80
2023-05-05T09:07:50.704Z,4.00
2023-05-05T09:10:19.704Z,3.97
2023-05-05T09:12:51.206Z,3.53
2023-05-05T09:15:19.254Z,3.60
2023-05-05T09:17:46.877Z,3.50
2023-05-05T09:20:15.286Z,4.05
2023-05-05T09:22:45.149Z,3.78
2023-05-05T09:25:16.332Z,3.85
2023-05-05T09:27:47.400Z,4.18
2023-05-05T09:32:51.008Z,4.00
2023-05-05T09:35:19.588Z,3.55
2023-05-05T09:37:47.276Z,3.28
2023-05-05T09:40:17.150Z,4.13
2023-05-05T09:42:45.016Z,2.80
2023-05-05T09:45:18.566Z,3.28
2023-05-05T09:47:47.218Z,3.20
2023-05-05T09:50:18.837Z,3.28
2023-05-05T09:53:06.603Z,3.08
2023-05-05T09:55:36.229Z,3.10
2023-05-05T09:58:20.089Z,2.70
2023-05-05T10:00:47.995Z,3.30
2023-05-05T10:03:15.398Z,2.97
2023-05-05T10:05:50.716Z,2.70
2023-05-05T10:08:22.466Z,2.70
2023-05-05T10:10:51.973Z,3.25
2023-05-05T10:13:21.483Z,2.72
2023-05-05T10:15:51.597Z,3.00
2023-05-05T10:18:28.584Z,2.90
2023-05-05T10:21:02.193Z,2.88
2023-05-05T10:23:48.590Z,2.55
2023-05-05T10:26:19.477Z,3.03
2023-05-05T10:28:46.917Z,2.80
2023-05-05T10:31:26.600Z,2.75
2023-05-05T10:34:03.408Z,2.38
2023-05-05T10:36:32.132Z,2.72
2023-05-05T10:39:00.155Z,2.55
2023-05-05T10:41:30.972Z,2.20
2023-05-05T10:44:00.865Z,2.38
2023-05-05T10:46:29.757Z,2.42
2023-05-05T10:49:18.771Z,2.53
2023-05-05T10:52:27.832Z,2.67
2023-05-05T10:55:37.052Z,2.40
2023-05-05T10:58:04.409Z,2.40
2023-05-05T11:00:41.094Z,2.78
2023-05-05T11:03:17.820Z,2.33
2023-05-05T11:06:03.789Z,2.30
2023-05-05T11:08:33.239Z,2.30
2023-05-05T11:11:01.248Z,2.03
2023-05-05T11:13:29.214Z,2.88
2023-05-05T11:15:58.304Z,2.45
2023-05-05T11:18:37.669Z,2.30
2023-05-05T11:21:15.840Z,2.90
2023-05-05T11:23:53.327Z,2.75
2023-05-05T11:26:51.327Z,2.50
2023-05-05T11:29:18.840Z,2.60
2023-05-05T11:31:47.848Z,2.45
2023-05-05T11:34:29.520Z,3.08
2023-05-05T11:39:32.950Z,2.85
2023-05-05T11:42:10.119Z,2.05
2023-05-05T11:44:38.208Z,1.77
2023-05-05T11:47:06.053Z,2.00
2023-05-05T11:49:35.473Z,2.05
2023-05-05T11:52:04.667Z,2.00
2023-05-05T11:54:35.607Z,2.17
2023-05-05T11:57:05.962Z,2.47
2023-05-05T11:59:36.490Z,2.25
2023-05-05T12:02:05.184Z,2.10
2023-05-05T12:04:33.432Z,2.03
2023-05-05T12:07:01.089Z,2.15
2023-05-05T12:09:28.517Z,1.80
2023-05-05T12:11:57.375Z,2.28
2023-05-05T12:14:25.846Z,2.15
2023-05-05T12:17:01.488Z,1.92
2023-05-05T12:19:33.273Z,1.98
2023-05-05T12:24:33.079Z,3.25
2023-05-05T12:27:11.762Z,1.95
2023-05-05T12:29:39.820Z,2.10
2023-05-05T12:32:06.984Z,2.38
2023-05-05T12:34:34.748Z,2.42
2023-05-05T12:37:03.451Z,2.25
2023-05-05T12:39:37.830Z,2.03
2023-05-05T12:42:06.443Z,2.22
2023-05-05T12:44:37.907Z,2.67
2023-05-05T12:47:06.319Z,2.20
2023-05-05T12:49:51.428Z,2.50
2023-05-05T12:52:18.992Z,2.28
2023-05-05T12:54:55.073Z,2.05
2023-05-05T12:57:23.586Z,2.30
2023-05-05T12:59:52.844Z,2.30
2023-05-05T13:02:21.112Z,2.25
2023-05-05T13:04:51.055Z,2.30
2023-05-05T13:07:19.893Z,2.00
2023-05-05T13:09:51.393Z,2.88
2023-05-05T13:12:18.899Z,2.58
2023-05-05T13:14:46.898Z,2.70
2023-05-05T13:17:14.765Z,2.03
2023-05-05T13:19:45.926Z,1.95
2023-05-05T13:22:13.587Z,2.22
2023-05-05T13:24:51.680Z,2.15
2023-05-05T13:27:21.375Z,2.40
2023-05-05T13:29:49.693Z,2.33
2023-05-05T13:32:17.062Z,2.63
2023-05-05T13:34:44.509Z,2.72
2023-05-05T13:37:11.975Z,2.50
2023-05-05T13:39:39.511Z,3.50
2023-05-05T13:42:06.859Z,2.17
2023-05-05T13:44:35.389Z,2.58
2023-05-05T13:47:03.073Z,2.40
2023-05-05T13:49:30.391Z,2.70
2023-05-05T13:51:58.775Z,2.15
2023-05-05T13:54:26.213Z,2.40
2023-05-05T13:56:53.486Z,2.42
2023-05-05T13:59:22.063Z,2.45
2023-05-05T14:01:49.362Z,2.00
2023-05-05T14:04:16.760Z,2.38
2023-05-05T14:06:43.939Z,2.45
2023-05-05T14:09:11.372Z,2.45
2023-05-05T14:11:38.562Z,1.92
2023-05-05T14:14:06.208Z,2.30
2023-05-05T14:16:33.351Z,2.47
2023-05-05T14:19:00.772Z,2.45
2023-05-05T14:21:28.523Z,2.40
2023-05-05T14:23:55.863Z,2.22
2023-05-05T14:26:22.860Z,2.40
2023-05-05T14:28:50.236Z,2.55
2023-05-05T14:31:17.864Z,2.30
2023-05-05T14:33:45.283Z,2.33
2023-05-05T14:36:12.260Z,2.13
2023-05-05T14:38:40.280Z,2.50
2023-05-05T14:41:07.601Z,1.77
2023-05-05T14:43:35.708Z,2.28
2023-05-05T14:46:06.866Z,2.53
2023-05-05T14:48:34.706Z,1.73
2023-05-05T14:51:01.744Z,1.90
2023-05-05T14:53:29.219Z,1.80
2023-05-05T14:55:56.280Z,1.70
2023-05-05T14:58:24.698Z,2.00
2023-05-05T15:00:52.951Z,2.13
2023-05-05T15:03:20.901Z,2.20
2023-05-05T15:05:47.983Z,1.77
2023-05-05T15:08:17.056Z,2.00
2023-05-05T15:10:44.110Z,1.98
2023-05-05T15:13:12.002Z,1.77
2023-05-05T15:15:38.966Z,1.50
2023-05-05T15:18:06.462Z,1.48
2023-05-05T15:20:33.510Z,1.67
2023-05-05T15:23:01.711Z,1.67
2023-05-05T15:25:29.030Z,2.00
2023-05-05T15:27:56.747Z,1.88
2023-05-05T15:30:23.627Z,1.70
2023-05-05T15:32:51.324Z,1.77
2023-05-05T15:35:18.234Z,1.67
2023-05-05T15:37:46.184Z,2.13
2023-05-05T15:40:13.315Z,1.60
2023-05-05T15:42:41.014Z,2.03
2023-05-05T15:45:09.423Z,2.08
2023-05-05T15:47:37.147Z,1.90
2023-05-05T15:50:05.489Z,2.92
2023-05-05T15:52:33.101Z,1.75
2023-05-05T15:55:00.860Z,2.17
2023-05-05T15:57:28.296Z,2.65
2023-05-05T15:59:55.357Z,1.75
2023-05-05T16:02:22.725Z,1.80
2023-05-05T16:04:50.718Z,1.80
2023-05-05T16:07:17.951Z,1.58
2023-05-05T16:09:45.976Z,2.50
2023-05-05T16:12:13.459Z,1.60
2023-05-05T16:14:40.891Z,1.70
2023-05-05T16:17:09.049Z,1.90
2023-05-05T16:19:36.379Z,2.17
2023-05-05T16:22:03.760Z,2.15
2023-05-05T16:24:31.152Z,2.42
2023-05-05T16:26:58.276Z,2.30
2023-05-05T16:29:26.030Z,2.28
2023-05-05T16:31:53.350Z,1.90
2023-05-05T16:34:21.421Z,2.30
2023-05-05T16:36:48.693Z,1.95
2023-05-05T16:39:15.920Z,2.20
2023-05-05T16:41:43.191Z,2.05
2023-05-05T16:44:10.666Z,1.67
2023-05-05T16:46:40.062Z,1.80
2023-05-05T16:49:07.521Z,1.75
2023-05-05T16:51:34.620Z,2.20
2023-05-05T16:54:02.050Z,1.98
2023-05-05T16:56:29.462Z,2.78
2023-05-05T16:58:56.638Z,2.88
2023-05-05T17:01:23.960Z,2.80
2023-05-05T17:03:51.243Z,2.20
2023-05-05T17:06:18.551Z,2.45
2023-05-05T17:08:46.769Z,1.98
2023-05-05T17:11:14.064Z,1.98
2023-05-05T17:13:41.177Z,2.20
2023-05-05T17:16:08.975Z,1.95
2023-05-05T17:18:37.188Z,2.72
2023-05-05T17:21:04.978Z,1.55
2023-05-05T17:23:32.569Z,2.42
2023-05-05T17:25:59.898Z,2.05
2023-05-05T17:28:28.346Z,2.10
2023-05-05T17:30:59.586Z,2.03
2023-05-05T17:33:26.806Z,1.75
2023-05-05T17:35:54.780Z,2.38
2023-05-05T17:38:22.113Z,2.00
2023-05-05T17:40:49.640Z,2.08
2023-05-05T17:43:16.546Z,2.78
2023-05-05T17:45:44.216Z,2.20
2023-05-05T17:48:11.063Z,3.10
2023-05-05T17:50:38.411Z,2.90
2023-05-05T17:53:05.290Z,2.80
2023-05-05T17:55:33.031Z,3.00
2023-05-05T17:57:59.919Z,3.20
2023-05-05T18:00:27.399Z,3.67
2023-05-05T18:02:54.699Z,4.22
2023-05-05T18:05:22.597Z,3.22
2023-05-05T18:07:49.786Z,3.80
2023-05-05T18:10:17.158Z,3.92
2023-05-05T18:12:44.069Z,4.13
2023-05-05T18:15:12.123Z,3.80
2023-05-05T18:17:39.460Z,4.93
2023-05-05T18:20:09.322Z,4.85
2023-05-05T18:22:37.862Z,4.60
2023-05-05T18:25:08.045Z,3.95
2023-05-05T18:27:36.187Z,4.60
2023-05-05T18:30:04.843Z,3.95
2023-05-05T18:32:32.685Z,4.13
2023-05-05T18:34:59.934Z,3.90
2023-05-05T18:37:28.007Z,3.97
2023-05-05T18:39:55.195Z,4.07
2023-05-05T18:42:22.659Z,4.15
2023-05-05T18:44:49.913Z,3.40
2023-05-05T18:47:17.077Z,3.28
2023-05-05T18:49:45.595Z,3.80
2023-05-05T18:52:13.607Z,3.83
2023-05-05T18:54:41.057Z,3.20
2023-05-05T18:57:08.264Z,3.17
2023-05-05T18:59:35.410Z,3.28
2023-05-05T19:02:03.019Z,2.67
2023-05-05T19:04:32.192Z,2.67
2023-05-05T19:07:00.294Z,3.15
2023-05-05T19:09:27.950Z,2.85
2023-05-05T19:11:55.517Z,3.05
2023-05-05T19:14:22.916Z,3.55
2023-05-05T19:16:50.520Z,3.85
2023-05-05T19:19:18.183Z,3.08
2023-05-05T19:21:45.861Z,3.95
2023-05-05T19:24:13.158Z,3.85
2023-05-05T19:26:40.486Z,3.72
2023-05-05T19:29:08.092Z,3.38
2023-05-05T19:31:35.463Z,4.10
2023-05-05T19:34:04.959Z,3.67
2023-05-05T19:36:34.468Z,3.42
2023-05-05T19:39:03.290Z,4.40
2023-05-05T19:41:31.259Z,3.70
2023-05-05T19:43:58.795Z,4.30
2023-05-05T19:46:26.654Z,3.80
2023-05-05T19:48:54.352Z,3.90
2023-05-05T19:51:21.465Z,3.80
2023-05-05T19:53:48.906Z,3.97
2023-05-05T19:56:17.166Z,3.45
2023-05-05T19:58:54.938Z,4.05
2023-05-05T20:01:22.146Z,4.00
2023-05-05T20:03:49.830Z,3.80
2023-05-05T20:06:16.891Z,4.38
2023-05-05T20:08:44.564Z,3.70
2023-05-05T20:11:11.880Z,4.35
2023-05-05T20:13:40.153Z,4.68
2023-05-05T20:16:07.864Z,4.00
2023-05-05T20:18:35.267Z,4.53
2023-05-05T20:21:02.551Z,5.05
2023-05-05T20:23:30.757Z,4.20
2023-05-05T20:25:58.451Z,3.95
2023-05-05T20:28:25.987Z,4.38
2023-05-05T20:30:52.871Z,4.10
2023-05-05T20:33:20.145Z,5.05
2023-05-05T20:35:47.410Z,4.72
2023-05-05T20:38:14.674Z,5.25
2023-05-05T20:40:42.212Z,5.00
2023-05-05T20:43:09.423Z,5.00
2023-05-05T20:45:37.250Z,4.75
2023-05-05T20:48:07.456Z,4.85
2023-05-05T20:50:38.639Z,5.05
2023-05-05T20:53:10.480Z,5.20
2023-05-05T20:55:37.633Z,4.82
2023-05-05T20:58:06.924Z,4.45
2023-05-05T21:00:34.418Z,5.38
2023-05-05T21:03:02.859Z,4.43
2023-05-05T21:05:31.599Z,4.97
2023-05-05T21:08:00.884Z,5.03
2023-05-05T21:10:33.383Z,5.75
2023-05-05T21:13:04.273Z,4.57
2023-05-05T21:15:32.081Z,4.97
2023-05-05T21:17:59.355Z,5.32
2023-05-05T21:20:26.810Z,5.22
2023-05-05T21:22:53.959Z,5.00
2023-05-05T21:25:21.683Z,4.68
2023-05-05T21:27:49.412Z,4.97
2023-05-05T21:30:17.120Z,4.93
2023-05-05T21:32:45.000Z,5.53
2023-05-05T21:35:12.457Z,4.97
2023-05-05T21:37:39.881Z,5.30
2023-05-05T21:40:11.127Z,4.75
2023-05-05T21:42:39.127Z,4.97
2023-05-05T21:45:06.791Z,4.97
2023-05-05T21:47:34.356Z,4.90
2023-05-05T21:50:01.951Z,5.07
2023-05-05T21:52:29.234Z,5.10
2023-05-05T21:54:56.518Z,4.63
2023-05-05T21:57:23.903Z,5.28
2023-05-05T21:59:51.058Z,5.03
2023-05-05T22:02:18.437Z,4.82
2023-05-05T22:04:48.785Z,4.60
2023-05-05T22:07:16.335Z,4.80
2023-05-05T22:09:43.491Z,5.22
2023-05-05T22:12:10.998Z,5.00
2023-05-05T22:14:38.104Z,5.47
2023-05-05T22:17:05.590Z,5.22
2023-05-05T22:19:32.659Z,5.28
2023-05-05T22:22:00.223Z,5.32
2023-05-05T22:24:27.237Z,5.57
2023-05-05T22:26:56.876Z,5.53
2023-05-05T22:29:23.834Z,5.30
2023-05-05T22:31:51.463Z,5.38
2023-05-05T22:34:22.131Z,5.28
2023-05-05T22:36:49.816Z,5.13
2023-05-05T22:39:18.580Z,5.22
2023-05-05T22:41:46.925Z,4.93
2023-05-05T22:44:14.217Z,5.28
2023-05-05T22:46:42.201Z,4.85
2023-05-05T22:49:09.555Z,5.20
2023-05-05T22:51:37.932Z,4.88
2023-05-05T22:54:04.954Z,4.90
2023-05-05T22:56:32.705Z,5.18
2023-05-05T22:58:59.729Z,5.50
2023-05-05T23:01:27.365Z,5.38
2023-05-05T23:03:54.360Z,5.10
2023-05-05T23:06:21.798Z,5.32
2023-05-05T23:08:49.313Z,5.90
2023-05-05T23:11:17.140Z,5.28
2023-05-05T23:13:44.083Z,5.25
2023-05-05T23:16:11.809Z,5.95
2023-05-05T23:18:38.914Z,5.43
2023-05-05T23:21:06.514Z,5.15
2023-05-05T23:23:33.495Z,4.82
2023-05-05T23:26:00.936Z,4.78
2023-05-05T23:28:27.892Z,5.18
2023-05-05T23:30:55.638Z,5.47
2023-05-05T23:33:22.711Z,5.88
2023-05-05T23:35:50.556Z,5.00
2023-05-05T23:38:17.562Z,5.13
2023-05-05T23:40:44.845Z,4.90
2023-05-05T23:43:12.184Z,5.50
2023-05-05T23:45:39.358Z,5.10
2023-05-05T23:48:06.970Z,4.45
2023-05-05T23:50:34.199Z,5.13
2023-05-05T23:53:01.666Z,4.80
2023-05-05T23:55:28.840Z,5.07
2023-05-05T23:57:55.927Z,5.10
